Time;durP1;ratioP1;P1;durP2;ratioP2;P2;SDS_P1;SDS_P2;PMS_P1;PMS_P2;Temp;Humidity;BMP_temperature;BMP_pressure;BME280_temperature;BME280_humidity;BME280_pressure;Samples;Min_cycle;Max_cycle;Signal;HPM_P1;HPM_P2
2023/05/06 07:07:53;;;;;;;8.30;1.90;;;;;;;12.07;41.07;100864.29;103063;1289;600941;-69
2023/05/06 07:10:41;;;;;;;6.70;2.10;;;;;;;12.03;41.27;100859.96;105603;1256;59193;-68
2023/05/06 07:13:29;;;;;;;6.20;1.90;;;;;;;11.99;41.60;100852.80;106006;1257;59347;-72
2023/05/06 07:16:17;;;;;;;5.90;2.00;;;;;;;12.05;41.92;100849.46;105531;1257;70390;-67
2023/05/06 07:19:05;;;;;;;6.50;2.00;;;;;;;12.15;41.17;100847.52;105493;1260;67765;-72
2023/05/06 07:21:54;;;;;;;7.80;1.90;;;;;;;12.09;41.10;100847.63;105652;1254;208731;-73
2023/05/06 07:24:43;;;;;;;7.70;2.10;;;;;;;11.79;41.26;100850.40;105747;1254;59342;-71
2023/05/06 07:27:31;;;;;;;6.30;2.00;;;;;;;11.58;42.15;100850.05;105755;1254;60014;-70
2023/05/06 07:30:21;;;;;;;7.70;2.30;;;;;;;11.30;43.39;100851.14;106110;1254;70734;-72
2023/05/06 07:33:10;;;;;;;8.00;1.90;;;;;;;11.09;44.22;100850.60;105788;1257;67599;-72
2023/05/06 07:35:58;;;;;;;6.50;2.40;;;;;;;10.94;44.52;100855.89;105865;1256;71141;-71
2023/05/06 07:38:48;;;;;;;8.50;2.80;;;;;;;10.97;44.98;100851.92;105920;1261;59323;-71
2023/05/06 07:41:35;;;;;;;6.80;2.50;;;;;;;11.08;44.80;100850.33;106010;1257;59160;-70
2023/05/06 07:44:24;;;;;;;7.80;2.40;;;;;;;11.29;45.10;100856.19;105850;1254;70038;-69
2023/05/06 07:47:31;;;;;;;7.00;2.50;;;;;;;11.55;44.56;100853.27;105703;1254;66366;-70
2023/05/06 07:50:20;;;;;;;7.60;2.70;;;;;;;11.75;43.54;100855.33;105830;1257;72317;-73
2023/05/06 07:53:08;;;;;;;6.40;2.30;;;;;;;11.78;42.99;100856.50;105650;1254;59473;-72
2023/05/06 07:56:00;;;;;;;6.50;2.20;;;;;;;11.81;42.68;100858.27;105728;1254;59277;-68
2023/05/06 07:58:49;;;;;;;6.90;2.40;;;;;;;11.83;42.78;100857.76;105816;1254;71178;-70
2023/05/06 08:01:37;;;;;;;6.50;2.30;;;;;;;11.94;43.13;100863.07;105956;1258;66901;-69
2023/05/06 08:04:25;;;;;;;8.10;2.60;;;;;;;12.20;42.94;100864.10;106489;1258;71048;-73
2023/05/06 08:07:14;;;;;;;7.40;2.30;;;;;;;12.43;42.69;100868.52;105785;1258;59414;-70
2023/05/06 08:10:04;;;;;;;7.20;2.30;;;;;;;12.61;42.11;100865.23;105429;1257;60441;-71
2023/05/06 08:12:51;;;;;;;6.70;2.20;;;;;;;12.73;41.35;100867.92;105789;1258;71200;-72
2023/05/06 08:15:40;;;;;;;8.10;2.40;;;;;;;12.83;41.40;100864.84;105672;1257;67323;-72
2023/05/06 08:18:29;;;;;;;24.00;13.10;;;;;;;12.99;41.10;100864.68;106571;1257;72474;-72
2023/05/06 08:21:17;;;;;;;8.60;3.30;;;;;;;13.17;40.86;100860.92;105514;1258;59766;-72
2023/05/06 08:24:05;;;;;;;7.40;2.60;;;;;;;13.26;39.61;100859.65;105517;1264;59442;-72
2023/05/06 08:26:53;;;;;;;8.10;2.70;;;;;;;13.37;39.93;100858.67;105830;1257;70326;-70
2023/05/06 08:29:41;;;;;;;8.20;2.20;;;;;;;13.30;39.65;100847.45;105573;1261;68160;-73
2023/05/06 08:32:29;;;;;;;6.40;2.10;;;;;;;13.36;39.56;100856.25;105582;1257;71611;-71
2023/05/06 08:35:18;;;;;;;6.40;2.00;;;;;;;13.41;39.41;100853.36;105860;1254;59269;-73
2023/05/06 08:38:06;;;;;;;6.90;2.20;;;;;;;13.46;39.53;100846.98;106072;1257;59340;-69
2023/05/06 08:40:59;;;;;;;6.40;2.00;;;;;;;13.41;39.67;100846.29;105907;1254;71177;-71
2023/05/06 08:43:49;;;;;;;7.10;2.30;;;;;;;13.42;40.11;100846.73;105992;1254;67977;-70
2023/05/06 08:46:37;;;;;;;7.80;2.40;;;;;;;13.45;39.47;100847.34;105896;1254;72035;-76
2023/05/06 08:49:26;;;;;;;7.60;2.10;;;;;;;13.29;39.43;100850.30;105823;1255;59411;-74
2023/05/06 08:52:14;;;;;;;8.70;2.50;;;;;;;13.11;40.27;100851.20;105738;1261;59306;-75
2023/05/06 08:55:04;;;;;;;7.00;2.20;;;;;;;12.99;40.37;100849.59;105855;1260;71437;-75
2023/05/06 08:57:53;;;;;;;8.70;2.40;;;;;;;12.84;40.59;100856.89;106038;1254;66283;-75
2023/05/06 09:00:45;;;;;;;7.40;2.20;;;;;;;12.85;40.96;100850.99;106000;1259;71390;-76
2023/05/06 09:03:34;;;;;;;11.40;5.40;;;;;;;12.77;40.82;100853.90;105922;1255;59223;-74
2023/05/06 09:06:23;;;;;;;6.60;2.40;;;;;;;12.53;39.96;100846.20;106131;1253;59405;-73
2023/05/06 09:09:13;;;;;;;7.40;1.90;;;;;;;12.36;39.78;100842.80;106017;1260;70533;-72
2023/05/06 09:12:02;;;;;;;7.90;2.20;;;;;;;12.17;40.41;100842.43;106006;1254;66605;-74
2023/05/06 09:14:50;;;;;;;8.30;2.40;;;;;;;12.03;40.63;100842.89;105639;1253;72703;-74
2023/05/06 09:17:38;;;;;;;8.00;2.30;;;;;;;11.92;40.80;100841.82;105565;1253;59353;-74
2023/05/06 09:20:27;;;;;;;7.20;2.20;;;;;;;11.91;40.40;100838.02;106316;1254;60301;-78
2023/05/06 09:23:17;;;;;;;7.10;2.60;;;;;;;11.96;40.79;100836.98;105874;1263;70148;-78
2023/05/06 09:26:05;;;;;;;8.30;2.40;;;;;;;11.88;40.37;100833.60;105964;1254;67853;-74
2023/05/06 09:28:55;;;;;;;7.30;2.20;;;;;;;11.88;41.02;100832.48;105907;1254;72773;-73
2023/05/06 09:31:46;;;;;;;6.40;2.30;;;;;;;11.91;41.28;100834.25;105805;1257;59174;-75
2023/05/06 09:34:34;;;;;;;9.60;2.10;;;;;;;11.86;41.47;100839.96;106222;1257;59269;-75
2023/05/06 09:37:26;;;;;;;7.80;2.60;;;;;;;11.88;41.59;100836.44;105997;1254;69969;-74
2023/05/06 09:40:15;;;;;;;6.80;2.40;;;;;;;11.88;41.50;100833.20;105961;1253;66351;-70
2023/05/06 09:43:05;;;;;;;8.00;3.10;;;;;;;11.83;41.71;100833.24;106003;1254;71334;-70
2023/05/06 09:45:53;;;;;;;7.60;2.60;;;;;;;11.77;41.96;100838.09;106005;1253;59218;-68
2023/05/06 09:48:42;;;;;;;8.10;2.30;;;;;;;11.78;41.54;100837.15;106780;1253;59231;-70
2023/05/06 09:51:31;;;;;;;9.10;3.00;;;;;;;11.69;40.61;100835.09;105816;1258;70166;-71
2023/05/06 09:54:20;;;;;;;9.40;2.50;;;;;;;11.70;40.62;100833.64;105850;1253;66419;-71
2023/05/06 09:57:12;;;;;;;8.60;2.60;;;;;;;11.60;40.15;100830.92;105936;1254;73154;-71
2023/05/06 10:00:05;;;;;;;8.00;2.60;;;;;;;11.41;40.17;100830.79;105725;1254;59266;-71
2023/05/06 10:03:00;;;;;;;8.10;2.70;;;;;;;11.26;40.37;100830.44;105949;1252;59305;-74
2023/05/06 10:05:52;;;;;;;8.00;2.40;;;;;;;11.28;40.79;100830.48;105973;1254;71207;-72
2023/05/06 10:08:41;;;;;;;8.30;2.60;;;;;;;11.34;40.97;100825.96;105793;1255;66599;-73
2023/05/06 10:11:31;;;;;;;8.40;2.70;;;;;;;11.39;40.63;100825.98;105546;1258;71199;-71
2023/05/06 10:14:20;;;;;;;8.30;2.90;;;;;;;11.49;40.90;100822.48;105490;1264;59182;-72
2023/05/06 10:17:10;;;;;;;9.20;2.50;;;;;;;11.57;40.31;100814.96;105505;1255;60172;-70
2023/05/06 10:20:00;;;;;;;7.50;2.80;;;;;;;11.59;40.28;100810.52;105849;1255;71097;-72
2023/05/06 10:23:23;;;;;;;7.90;2.70;;;;;;;11.57;39.93;100809.61;105784;1258;69947;-73
2023/05/06 10:26:14;;;;;;;6.50;2.40;;;;;;;11.55;40.06;100802.61;105825;1254;74172;-71
2023/05/06 10:29:09;;;;;;;7.60;2.60;;;;;;;11.46;39.65;100803.86;105615;1264;59354;-72
2023/05/06 10:32:02;;;;;;;8.00;2.80;;;;;;;11.43;39.77;100799.78;105886;1258;60089;-72
2023/05/06 10:34:55;;;;;;;7.80;2.80;;;;;;;11.47;39.73;100796.10;105656;1258;71560;-70
2023/05/06 10:37:47;;;;;;;8.10;2.80;;;;;;;11.47;39.69;100797.01;105871;1254;67932;-70
2023/05/06 10:40:36;;;;;;;7.60;2.80;;;;;;;11.44;40.29;100797.40;106042;1254;71046;-71
2023/05/06 10:43:31;;;;;;;6.50;2.50;;;;;;;11.38;40.74;100791.44;105685;1259;59214;-70
2023/05/06 10:46:27;;;;;;;11.80;3.00;;;;;;;11.29;41.34;100789.21;105624;1254;60400;-71
2023/05/06 10:49:17;;;;;;;7.10;2.70;;;;;;;11.26;41.88;100792.05;104916;1256;1003486;-71
2023/05/06 10:52:15;;;;;;;6.50;2.50;;;;;;;11.19;42.41;100795.76;105690;1258;68260;-72
2023/05/06 10:55:26;;;;;;;6.80;2.50;;;;;;;11.01;43.34;100794.98;105836;1254;72655;-70
2023/05/06 10:58:18;;;;;;;8.60;2.50;;;;;;;10.89;44.25;100795.81;106194;1258;59122;-70
2023/05/06 11:01:13;;;;;;;7.60;3.00;;;;;;;10.89;44.11;100790.45;105672;1260;59982;-70
2023/05/06 11:04:08;;;;;;;6.60;2.40;;;;;;;10.91;43.79;100791.78;105624;1254;70063;-72
2023/05/06 11:07:20;;;;;;;8.00;2.50;;;;;;;10.85;43.68;100786.63;106169;1254;66310;-72
2023/05/06 11:10:11;;;;;;;9.40;2.50;;;;;;;10.81;44.31;100785.32;105972;1253;71345;-72
2023/05/06 11:13:20;;;;;;;7.50;2.60;;;;;;;10.81;44.37;100787.13;106181;1257;59230;-72
2023/05/06 11:16:18;;;;;;;9.20;3.20;;;;;;;10.87;44.05;100788.31;109433;1254;60037;-71
2023/05/06 11:19:06;;;;;;;8.40;3.80;;;;;;;10.99;43.83;100781.30;109276;1253;70150;-72
2023/05/06 11:21:57;;;;;;;9.60;3.10;;;;;;;11.01;43.37;100786.14;109189;1254;67621;-73
2023/05/06 11:24:46;;;;;;;7.80;3.00;;;;;;;11.08;43.08;100783.71;109261;1254;72564;-72
2023/05/06 11:27:37;;;;;;;7.10;2.70;;;;;;;11.18;42.55;100781.08;109358;1254;56906;-74
2023/05/06 11:30:25;;;;;;;7.30;2.60;;;;;;;11.32;42.59;100782.98;109323;1254;60352;-75
2023/05/06 11:33:23;;;;;;;9.00;2.50;;;;;;;11.35;42.71;100779.70;109291;1254;71486;-76
2023/05/06 11:36:20;;;;;;;9.50;2.70;;;;;;;11.41;43.08;100767.59;109120;1254;66844;-75
2023/05/06 11:39:09;;;;;;;9.40;2.50;;;;;;;11.49;42.73;100775.17;109360;1254;72655;-75
2023/05/06 11:42:06;;;;;;;7.20;2.30;;;;;;;11.47;43.60;100778.02;109272;1254;56926;-74
2023/05/06 11:45:00;;;;;;;7.10;2.40;;;;;;;11.46;43.46;100777.50;109327;1254;60180;-76
2023/05/06 11:47:53;;;;;;;7.00;2.60;;;;;;;11.46;43.16;100777.56;109290;1254;72277;-75
2023/05/06 11:50:47;;;;;;;6.80;2.30;;;;;;;11.39;43.16;100778.38;109151;1253;67612;-73
2023/05/06 11:53:36;;;;;;;9.20;2.50;;;;;;;11.43;43.31;100783.39;109321;1254;73334;-75
2023/05/06 11:56:24;;;;;;;8.60;2.50;;;;;;;11.43;43.69;100779.02;109260;1253;56902;-76
2023/05/06 11:59:13;;;;;;;6.80;2.80;;;;;;;11.44;43.54;100781.60;109177;1254;57785;-75
2023/05/06 12:02:04;;;;;;;7.00;2.60;;;;;;;11.53;43.56;100776.68;109256;1253;70681;-75
2023/05/06 12:04:52;;;;;;;7.10;2.60;;;;;;;11.64;43.59;100773.98;109361;1253;67924;-75
2023/05/06 12:07:46;;;;;;;8.20;3.10;;;;;;;11.64;44.21;100772.91;109327;1253;71072;-76
2023/05/06 12:10:36;;;;;;;9.00;2.60;;;;;;;11.62;44.28;100771.60;107931;1253;1002394;-77
2023/05/06 12:13:26;;;;;;;7.20;2.60;;;;;;;11.73;44.05;100779.35;109258;1253;59232;-75
2023/05/06 12:16:15;;;;;;;6.70;2.40;;;;;;;11.86;44.29;100778.95;109335;1256;70734;-75
2023/05/06 12:19:07;;;;;;;6.50;2.40;;;;;;;11.97;43.77;100778.25;109257;1253;66418;-76
2023/05/06 12:22:18;;;;;;;9.80;3.00;;;;;;;11.93;43.35;100775.14;109271;1253;72851;-77
2023/05/06 12:25:15;;;;;;;8.30;2.40;;;;;;;11.79;43.92;100772.41;109393;1256;56751;-74
2023/05/06 12:28:25;;;;;;;8.60;2.80;;;;;;;11.78;44.36;100772.77;109031;1260;59018;-74
2023/05/06 12:31:21;;;;;;;7.60;2.70;;;;;;;11.70;44.08;100770.70;108852;1263;70276;-74
2023/05/06 12:34:42;;;;;;;7.40;2.60;;;;;;;11.62;44.72;100766.33;108724;1263;66651;-75
2023/05/06 12:37:35;;;;;;;7.50;2.40;;;;;;;11.60;44.04;100760.56;108779;1263;71878;-75
2023/05/06 12:40:34;;;;;;;9.30;3.80;;;;;;;11.49;44.12;100751.36;108546;1265;58114;-76
2023/05/06 12:43:29;;;;;;;6.30;2.50;;;;;;;11.47;44.92;100759.67;108672;1265;60238;-78
2023/05/06 12:46:19;;;;;;;8.40;2.80;;;;;;;11.29;45.40;100763.24;108622;1266;72595;-73
2023/05/06 12:49:09;;;;;;;8.70;3.00;;;;;;;11.42;45.83;100762.50;108624;1265;66493;-73
2023/05/06 12:52:16;;;;;;;6.90;2.40;;;;;;;11.59;46.07;100762.21;108508;1265;71423;-76
2023/05/06 12:55:05;;;;;;;8.80;2.80;;;;;;;11.78;45.89;100763.89;108681;1266;57692;-74
2023/05/06 12:57:54;;;;;;;7.60;2.70;;;;;;;11.77;45.44;100762.34;108404;1265;59223;-74
2023/05/06 13:00:45;;;;;;;6.70;2.50;;;;;;;11.81;45.84;100755.30;108554;1265;70577;-74
2023/05/06 13:03:37;;;;;;;7.10;2.50;;;;;;;11.86;45.45;100755.13;108717;1263;68030;-76
2023/05/06 13:06:25;;;;;;;8.50;2.80;;;;;;;11.85;45.60;100749.91;108860;1261;72433;-76
2023/05/06 13:09:14;;;;;;;7.90;2.80;;;;;;;11.85;45.65;100748.11;108934;1260;57719;-75
2023/05/06 13:12:03;;;;;;;7.50;2.80;;;;;;;11.85;45.08;100745.23;108900;1260;58278;-75
2023/05/06 13:14:52;;;;;;;10.40;2.20;;;;;;;11.82;45.10;100742.09;108905;1260;71532;-74
2023/05/06 13:17:42;;;;;;;6.70;2.40;;;;;;;11.77;45.29;100745.66;108923;1260;67169;-73
2023/05/06 13:20:31;;;;;;;7.40;2.50;;;;;;;11.65;45.37;100741.91;108775;1260;72410;-74
2023/05/06 13:23:20;;;;;;;9.40;2.70;;;;;;;11.61;45.30;100740.38;108870;1260;56955;-75
2023/05/06 13:26:07;;;;;;;6.80;2.30;;;;;;;11.61;45.70;100741.30;108808;1260;58921;-76
2023/05/06 13:28:55;;;;;;;7.80;2.60;;;;;;;11.68;45.83;100742.54;108839;1260;72215;-74
2023/05/06 13:31:46;;;;;;;7.10;2.60;;;;;;;11.67;45.53;100742.12;108799;1260;66595;-75
2023/05/06 13:34:34;;;;;;;6.90;2.10;;;;;;;11.66;45.50;100735.93;108844;1260;72894;-78
2023/05/06 13:37:22;;;;;;;8.50;2.30;;;;;;;11.69;45.29;100740.75;108866;1260;57739;-73
2023/05/06 13:40:11;;;;;;;10.70;3.00;;;;;;;11.68;44.94;100740.07;108932;1260;59098;-73
2023/05/06 13:43:02;;;;;;;11.20;3.50;;;;;;;11.65;44.73;100740.98;108985;1259;70725;-74
2023/05/06 13:45:51;;;;;;;8.00;2.40;;;;;;;11.74;44.79;100744.11;108999;1260;67692;-74
2023/05/06 13:48:39;;;;;;;7.50;2.70;;;;;;;11.68;44.48;100742.39;108993;1259;72693;-76
2023/05/06 13:51:29;;;;;;;8.90;2.40;;;;;;;11.70;44.86;100739.20;108905;1265;56830;-76
2023/05/06 13:54:17;;;;;;;8.30;2.70;;;;;;;11.82;44.87;100739.25;108900;1260;60413;-76
2023/05/06 13:57:08;;;;;;;7.50;2.80;;;;;;;11.89;44.78;100736.63;108998;1260;70987;-75
2023/05/06 13:59:56;;;;;;;9.00;2.60;;;;;;;11.94;44.56;100733.77;108313;1260;1002466;-74
2023/05/06 14:02:45;;;;;;;7.10;2.60;;;;;;;12.00;44.14;100732.70;108909;1260;71234;-78
2023/05/06 14:05:38;;;;;;;6.90;2.40;;;;;;;11.90;43.83;100731.56;108887;1260;57040;-76
2023/05/06 14:08:26;;;;;;;8.90;2.70;;;;;;;11.85;43.87;100730.12;108946;1260;60118;-76
2023/05/06 14:11:14;;;;;;;8.50;2.80;;;;;;;11.86;43.63;100727.92;109014;1259;70958;-75
2023/05/06 14:14:03;;;;;;;9.00;2.60;;;;;;;11.92;43.82;100726.08;108915;1259;66768;-74
2023/05/06 14:16:53;;;;;;;7.90;2.30;;;;;;;12.04;43.50;100724.21;108853;1260;72707;-74
2023/05/06 14:19:41;;;;;;;9.40;2.60;;;;;;;12.03;43.28;100719.80;108819;1260;58829;-76
2023/05/06 14:22:43;;;;;;;11.90;2.60;;;;;;;11.95;42.89;100712.89;108801;1263;59232;-76
2023/05/06 14:25:37;;;;;;;7.20;2.00;;;;;;;11.92;43.14;100711.66;108826;1262;73003;-75
2023/05/06 14:28:25;;;;;;;7.50;2.50;;;;;;;11.97;43.29;100710.85;108853;1262;66721;-74
2023/05/06 14:31:13;;;;;;;10.30;2.70;;;;;;;12.00;42.90;100715.92;108740;1262;72464;-76
2023/05/06 14:34:01;;;;;;;8.40;2.40;;;;;;;12.06;43.00;100710.34;108706;1262;57219;-75
2023/05/06 14:36:50;;;;;;;9.00;2.70;;;;;;;12.08;43.37;100710.55;108726;1262;61660;-77
2023/05/06 14:39:38;;;;;;;10.30;2.80;;;;;;;12.12;43.73;100711.88;108764;1263;71930;-76
2023/05/06 14:42:26;;;;;;;8.30;2.70;;;;;;;12.19;43.93;100714.00;108531;1264;68230;-75
2023/05/06 14:45:16;;;;;;;19.70;10.70;;;;;;;12.22;43.54;100710.93;108683;1264;71412;-74
2023/05/06 14:48:04;;;;;;;9.00;3.60;;;;;;;12.21;43.55;100715.45;108621;1263;57784;-74
2023/05/06 14:50:53;;;;;;;6.70;2.70;;;;;;;12.07;43.57;100715.08;108612;1263;60208;-74
2023/05/06 14:53:40;;;;;;;7.90;2.00;;;;;;;11.85;43.54;100707.41;108762;1262;72072;-72
2023/05/06 14:56:28;;;;;;;6.60;2.00;;;;;;;11.53;44.20;100701.52;108853;1262;67821;-76
2023/05/06 14:59:17;;;;;;;7.20;2.30;;;;;;;11.49;44.57;100712.42;108909;1262;71245;-76
2023/05/06 15:02:08;;;;;;;8.00;2.30;;;;;;;11.44;45.17;100705.90;109001;1261;56773;-75
2023/05/06 15:04:57;;;;;;;7.00;2.10;;;;;;;11.51;44.68;100707.14;108792;1263;60220;-75
2023/05/06 15:07:48;;;;;;;8.60;3.00;;;;;;;11.56;44.80;100704.86;108727;1262;72061;-76
2023/05/06 15:10:36;;;;;;;7.10;2.20;;;;;;;11.61;44.61;100703.39;108695;1266;67797;-74
2023/05/06 15:13:24;;;;;;;7.40;2.00;;;;;;;11.63;44.65;100697.42;108526;1266;71559;-76
2023/05/06 15:16:12;;;;;;;7.40;2.10;;;;;;;11.62;44.88;100700.88;108587;1265;56884;-77
2023/05/06 15:19:00;;;;;;;8.70;2.40;;;;;;;11.67;44.99;100702.83;108487;1266;59038;-73
2023/05/06 15:21:48;;;;;;;8.30;2.60;;;;;;;11.68;44.71;100700.48;108519;1265;72314;-74
2023/05/06 15:24:37;;;;;;;7.70;2.20;;;;;;;11.64;44.27;100700.92;108608;1265;66313;-73
2023/05/06 15:27:30;;;;;;;8.30;2.40;;;;;;;11.55;44.49;100699.05;108671;1265;73058;-73
2023/05/06 15:30:18;;;;;;;8.10;2.70;;;;;;;11.49;44.57;100698.61;108533;1265;56992;-75
2023/05/06 15:33:07;;;;;;;10.80;3.30;;;;;;;11.43;44.85;100694.90;108746;1265;58750;-73
2023/05/06 15:35:55;;;;;;;8.40;2.80;;;;;;;11.39;44.82;100697.18;108579;1265;71381;-72
2023/05/06 15:38:49;;;;;;;8.30;2.50;;;;;;;11.33;44.98;100694.55;108561;1266;67762;-74
2023/05/06 15:41:38;;;;;;;8.70;2.20;;;;;;;11.30;45.28;100697.45;108907;1261;72535;-73
2023/05/06 15:44:26;;;;;;;7.80;2.30;;;;;;;11.19;45.12;100694.11;108898;1261;58737;-77
2023/05/06 15:47:15;;;;;;;7.30;2.30;;;;;;;11.11;45.05;100690.28;108644;1260;60643;-75
2023/05/06 15:50:08;;;;;;;8.60;2.30;;;;;;;10.91;45.50;100693.96;108839;1261;72272;-77
2023/05/06 15:53:12;;;;;;;6.80;2.30;;;;;;;10.71;45.63;100692.61;108868;1260;67926;-73
2023/05/06 15:56:01;;;;;;;6.90;2.20;;;;;;;10.60;45.83;100690.73;108899;1261;72708;-76
2023/05/06 15:59:06;;;;;;;6.70;2.30;;;;;;;10.48;46.53;100691.02;108877;1262;57824;-75
2023/05/06 16:01:54;;;;;;;8.40;2.60;;;;;;;10.36;46.74;100693.08;108825;1262;59154;-73
2023/05/06 16:04:45;;;;;;;7.70;2.20;;;;;;;10.32;46.92;100688.46;108764;1260;72261;-74
2023/05/06 16:07:34;;;;;;;6.60;2.00;;;;;;;10.35;47.42;100686.38;108915;1260;66544;-73
2023/05/06 16:10:24;;;;;;;7.20;2.10;;;;;;;10.43;47.21;100687.10;108911;1258;71533;-77
2023/05/06 16:13:14;;;;;;;7.30;2.40;;;;;;;10.40;46.96;100686.02;108972;1260;57059;-74
2023/05/06 16:16:02;;;;;;;7.70;2.10;;;;;;;10.31;47.21;100681.84;109032;1259;60362;-73
2023/05/06 16:18:50;;;;;;;7.30;2.10;;;;;;;10.26;47.16;100685.68;108930;1260;70834;-74
2023/05/06 16:21:39;;;;;;;7.90;1.90;;;;;;;10.13;47.48;100691.66;109060;1260;68461;-74
2023/05/06 16:24:27;;;;;;;7.90;2.30;;;;;;;10.11;47.96;100699.06;108645;1264;71452;-75
2023/05/06 16:27:17;;;;;;;6.80;2.20;;;;;;;10.14;47.98;100693.23;108654;1263;56971;-73
2023/05/06 16:30:07;;;;;;;7.90;2.30;;;;;;;10.11;48.21;100693.41;108796;1266;58931;-74
2023/05/06 16:32:57;;;;;;;6.70;2.30;;;;;;;10.11;48.67;100696.98;108635;1264;70747;-73
2023/05/06 16:35:46;;;;;;;7.50;2.30;;;;;;;10.09;48.87;100694.30;108684;1265;66282;-76
2023/05/06 16:38:34;;;;;;;6.80;1.90;;;;;;;10.04;49.00;100698.13;108421;1264;72682;-74
2023/05/06 16:41:22;;;;;;;7.00;1.90;;;;;;;10.01;48.80;100700.61;108650;1265;57766;-75
2023/05/06 16:44:11;;;;;;;7.50;2.20;;;;;;;9.94;49.00;100700.40;108516;1265;60461;-75
2023/05/06 16:46:59;;;;;;;7.50;2.30;;;;;;;9.86;49.28;100703.19;108465;1265;72120;-75
2023/05/06 16:49:51;;;;;;;9.50;2.40;;;;;;;9.75;49.80;100698.76;108685;1265;66387;-75
2023/05/06 16:52:39;;;;;;;8.10;2.20;;;;;;;9.58;50.17;100700.73;108667;1266;72777;-73
2023/05/06 16:55:28;;;;;;;7.80;2.50;;;;;;;9.45;50.74;100703.18;108759;1260;56914;-75
2023/05/06 16:58:16;;;;;;;7.80;2.30;;;;;;;9.29;51.22;100704.11;108466;1266;58787;-75
2023/05/06 17:01:08;;;;;;;8.00;2.40;;;;;;;9.15;51.43;100705.84;108627;1266;70687;-76
2023/05/06 17:03:56;;;;;;;6.80;2.40;;;;;;;9.07;52.39;100705.11;108407;1266;66472;-76
2023/05/06 17:06:51;;;;;;;8.10;2.20;;;;;;;8.94;52.85;100708.04;108529;1266;70535;-73
2023/05/06 17:09:39;;;;;;;9.30;2.50;;;;;;;8.82;53.19;100706.42;108550;1266;56936;-75
2023/05/06 17:12:28;;;;;;;7.00;2.40;;;;;;;8.66;53.73;100701.91;108627;1266;59038;-78
2023/05/06 17:15:18;;;;;;;8.00;2.30;;;;;;;8.60;54.22;100706.71;108396;1266;72203;-77
2023/05/06 17:18:06;;;;;;;5.40;1.80;;;;;;;8.47;54.78;100709.73;108626;1266;67926;-74
2023/05/06 17:20:56;;;;;;;7.80;2.50;;;;;;;8.34;55.44;100714.36;108514;1266;72582;-74
2023/05/06 17:23:46;;;;;;;7.10;2.50;;;;;;;8.25;55.78;100716.15;108360;1266;56844;-75
2023/05/06 17:26:34;;;;;;;7.70;2.20;;;;;;;8.14;56.18;100714.77;108463;1266;58992;-73
2023/05/06 17:30:36;;;;;;;7.90;2.30;;;;;;;8.07;56.63;100717.34;105864;1294;599961;-74
2023/05/06 17:33:24;;;;;;;7.20;2.70;;;;;;;7.92;57.52;100712.84;108304;1263;57099;-74
2023/05/06 17:36:14;;;;;;;8.50;2.50;;;;;;;7.80;58.00;100720.42;108004;1263;59271;-74
2023/05/06 17:39:04;;;;;;;7.50;2.30;;;;;;;7.73;58.07;100723.42;105841;1263;70681;-76
2023/05/06 17:41:52;;;;;;;8.80;2.60;;;;;;;7.65;58.81;100721.94;105483;1263;66543;-75
2023/05/06 17:44:41;;;;;;;7.70;2.70;;;;;;;7.55;59.14;100721.94;105422;1268;220076;-74
2023/05/06 17:47:30;;;;;;;14.20;5.60;;;;;;;7.48;59.15;100726.94;106309;1260;59138;-75
2023/05/06 17:50:19;;;;;;;12.20;3.80;;;;;;;7.39;60.11;100723.33;105781;1257;60442;-73
2023/05/06 17:53:08;;;;;;;10.20;2.80;;;;;;;7.28;60.28;100719.89;105713;1257;68415;-74
2023/05/06 17:55:57;;;;;;;10.10;2.60;;;;;;;7.22;60.97;100722.33;105574;1257;67620;-74
2023/05/06 17:58:49;;;;;;;8.00;2.80;;;;;;;7.13;60.90;100719.77;105533;1256;71261;-73
2023/05/06 18:01:37;;;;;;;10.20;2.80;;;;;;;7.07;61.30;100721.66;105645;1257;59334;-74
2023/05/06 18:04:26;;;;;;;8.80;2.40;;;;;;;6.98;62.31;100720.02;105603;1260;59917;-74
2023/05/06 18:07:15;;;;;;;8.00;2.90;;;;;;;6.90;62.64;100723.98;105480;1257;70180;-74
2023/05/06 18:10:05;;;;;;;9.10;2.70;;;;;;;6.83;63.43;100723.45;105671;1257;67959;-73
2023/05/06 18:12:54;;;;;;;7.00;2.30;;;;;;;6.76;63.60;100725.39;105685;1257;72713;-73
2023/05/06 18:15:43;;;;;;;8.50;2.40;;;;;;;6.70;64.07;100724.50;105771;1256;59318;-74
2023/05/06 18:18:31;;;;;;;9.40;2.70;;;;;;;6.61;64.73;100723.48;105869;1258;60005;-74
2023/05/06 18:21:20;;;;;;;7.40;2.20;;;;;;;6.56;64.64;100725.39;105896;1257;71621;-73
2023/05/06 18:24:08;;;;;;;7.10;2.40;;;;;;;6.51;65.41;100727.74;105766;1257;66604;-76
2023/05/06 18:27:04;;;;;;;9.60;2.40;;;;;;;6.46;65.78;100734.15;106025;1258;72756;-75
2023/05/06 18:29:58;;;;;;;7.40;2.30;;;;;;;6.40;66.35;100734.58;105853;1260;58021;-73
2023/05/06 18:32:46;;;;;;;7.60;2.50;;;;;;;6.32;66.54;100730.42;105957;1260;59212;-75
2023/05/06 18:35:38;;;;;;;8.10;2.20;;;;;;;6.34;66.48;100738.98;105786;1255;71186;-75
2023/05/06 18:38:27;;;;;;;8.20;2.70;;;;;;;6.30;66.85;100742.86;105812;1257;69235;-75
2023/05/06 18:41:15;;;;;;;9.10;3.00;;;;;;;6.28;66.76;100744.71;105743;1261;72527;-73
2023/05/06 18:44:09;;;;;;;11.30;3.10;;;;;;;6.25;66.71;100743.27;106205;1258;59331;-74
2023/05/06 18:46:58;;;;;;;9.00;3.00;;;;;;;6.23;66.45;100747.09;105166;1257;1003093;-73
2023/05/06 18:49:46;;;;;;;9.60;3.10;;;;;;;6.20;66.74;100750.39;105584;1257;71460;-71
2023/05/06 18:52:36;;;;;;;7.70;3.00;;;;;;;6.18;67.10;100751.20;106008;1261;67552;-73
2023/05/06 18:55:24;;;;;;;9.90;3.10;;;;;;;6.15;67.72;100749.06;105878;1257;70253;-72
2023/05/06 18:58:12;;;;;;;10.50;3.10;;;;;;;6.10;68.18;100755.09;107112;1257;59224;-71
2023/05/06 19:01:07;;;;;;;10.00;3.20;;;;;;;6.07;67.95;100755.94;107202;1257;60261;-71
2023/05/06 19:03:55;;;;;;;10.00;3.50;;;;;;;6.05;68.03;100757.13;103618;1256;1003712;-72
2023/05/06 19:06:44;;;;;;;9.10;3.00;;;;;;;6.01;68.84;100759.75;105764;1256;68073;-75
2023/05/06 19:09:35;;;;;;;11.20;3.60;;;;;;;5.99;68.98;100759.87;105481;1259;71321;-74
2023/05/06 19:12:24;;;;;;;12.10;4.00;;;;;;;5.97;68.84;100762.71;105644;1257;59253;-73
2023/05/06 19:15:13;;;;;;;10.00;3.50;;;;;;;5.95;69.26;100765.27;105525;1260;59312;-72
2023/05/06 19:18:02;;;;;;;12.80;4.30;;;;;;;5.94;69.44;100768.15;105416;1260;72137;-73
2023/05/06 19:20:50;;;;;;;9.00;3.00;;;;;;;5.93;69.55;100769.24;105611;1262;68422;-71
2023/05/06 19:23:42;;;;;;;11.50;3.80;;;;;;;5.94;70.77;100772.39;105335;1260;71019;-72
2023/05/06 19:26:30;;;;;;;11.00;4.20;;;;;;;5.94;71.73;100767.06;105338;1260;59782;-73
2023/05/06 19:29:21;;;;;;;10.50;3.20;;;;;;;5.96;71.34;100771.91;105642;1260;60248;-73
2023/05/06 19:32:09;;;;;;;11.90;3.50;;;;;;;5.92;71.17;100771.92;105343;1259;70156;-73
2023/05/06 19:35:06;;;;;;;11.50;4.10;;;;;;;5.87;71.05;100769.02;105551;1263;66438;-73
2023/05/06 19:37:57;;;;;;;11.00;4.00;;;;;;;5.81;71.61;100769.65;105382;1263;72681;-75
2023/05/06 19:40:46;;;;;;;13.20;3.30;;;;;;;5.76;72.31;100772.69;105235;1265;59187;-73
2023/05/06 19:43:41;;;;;;;13.30;3.20;;;;;;;5.70;72.53;100772.94;105315;1269;59294;-73
2023/05/06 19:46:32;;;;;;;9.70;3.10;;;;;;;5.65;73.12;100773.73;105395;1266;71821;-72
2023/05/06 19:49:22;;;;;;;10.90;3.20;;;;;;;5.61;73.15;100773.73;105519;1261;66709;-73
2023/05/06 19:52:12;;;;;;;11.30;3.50;;;;;;;5.57;73.66;100772.48;105311;1266;71297;-71
2023/05/06 19:55:02;;;;;;;9.60;3.60;;;;;;;5.55;74.13;100772.05;105390;1260;59698;-72
2023/05/06 19:57:50;;;;;;;13.10;4.50;;;;;;;5.53;74.09;100768.44;105424;1265;59332;-71
2023/05/06 20:00:38;;;;;;;15.10;4.80;;;;;;;5.52;74.81;100769.23;105373;1261;69997;-72
2023/05/06 20:03:26;;;;;;;10.60;3.80;;;;;;;5.49;75.06;100773.02;106622;1260;66687;-71
2023/05/06 20:06:14;;;;;;;10.90;4.10;;;;;;;5.47;75.06;100767.85;107760;1257;72364;-73
2023/05/06 20:09:03;;;;;;;13.90;5.60;;;;;;;5.44;75.41;100771.12;107496;1257;59358;-72
2023/05/06 20:11:51;;;;;;;14.50;5.20;;;;;;;5.41;75.44;100769.88;106258;1259;60236;-72